Time;durP1;ratioP1;P1;durP2;ratioP2;P2;SDS_P1;SDS_P2;PMS_P1;PMS_P2;Temp;Humidity;BMP_temperature;BMP_pressure;BME280_temperature;BME280_humidity;BME280_pressure;Samples;Min_cycle;Max_cycle;Signal;HPM_P1;HPM_P2
2024/01/02 00:00:54;;;;;;;;;;;19.50;46.40;;;;;;5091515;28;20343;-57
2024/01/02 00:03:22;;;;;;;;;;;19.50;46.40;;;;;;5091928;28;19920;-58
2024/01/02 00:05:49;;;;;;;;;;;19.50;46.40;;;;;;5091411;28;19924;-58
2024/01/02 00:08:16;;;;;;;;;;;19.50;46.40;;;;;;5091231;28;19942;-58
2024/01/02 00:10:44;;;;;;;;;;;19.50;46.40;;;;;;5072753;28;19970;-58
2024/01/02 00:13:11;;;;;;;;;;;19.50;46.40;;;;;;5069301;28;19984;-58
2024/01/02 00:15:38;;;;;;;;;;;19.50;46.40;;;;;;5089936;28;19920;-58
2024/01/02 00:18:04;;;;;;;;;;;19.50;46.40;;;;;;5073292;28;19927;-58
2024/01/02 00:20:31;;;;;;;;;;;19.50;46.40;;;;;;5086879;28;19927;-58
2024/01/02 00:22:58;;;;;;;;;;;19.50;46.40;;;;;;5069468;28;19920;-58
2024/01/02 00:25:25;;;;;;;;;;;19.50;46.40;;;;;;5089771;28;19977;-57
2024/01/02 00:27:53;;;;;;;;;;;19.50;46.40;;;;;;5087925;28;20200;-58
2024/01/02 00:30:19;;;;;;;;;;;19.50;46.40;;;;;;5071043;28;19928;-58
2024/01/02 00:32:46;;;;;;;;;;;19.50;46.40;;;;;;5086705;28;19973;-58
2024/01/02 00:35:13;;;;;;;;;;;19.50;46.40;;;;;;5071079;28;19927;-58
2024/01/02 00:37:39;;;;;;;;;;;19.50;46.40;;;;;;5072982;28;20224;-57
2024/01/02 00:40:07;;;;;;;;;;;19.50;46.40;;;;;;5073223;28;19920;-58
2024/01/02 00:42:33;;;;;;;;;;;19.50;46.40;;;;;;5075117;28;19924;-57
2024/01/02 00:45:03;;;;;;;;;;;19.40;46.30;;;;;;5092654;28;19923;-58
2024/01/02 00:47:30;;;;;;;;;;;19.50;46.40;;;;;;5088821;28;19924;-58
2024/01/02 00:49:56;;;;;;;;;;;19.40;46.40;;;;;;5093188;28;19923;-57
2024/01/02 00:52:23;;;;;;;;;;;19.50;46.40;;;;;;5092398;28;19954;-58
2024/01/02 00:54:51;;;;;;;;;;;19.40;46.40;;;;;;5088666;28;19927;-58
2024/01/02 00:57:18;;;;;;;;;;;19.50;46.40;;;;;;5091771;28;19970;-57
2024/01/02 00:59:44;;;;;;;;;;;19.50;46.40;;;;;;5074630;28;19920;-57
2024/01/02 01:02:13;;;;;;;;;;;19.50;46.40;;;;;;5090916;28;19966;-58
2024/01/02 01:04:41;;;;;;;;;;;19.50;46.40;;;;;;5093534;28;20007;-58
2024/01/02 01:07:08;;;;;;;;;;;19.50;46.40;;;;;;5091960;28;19939;-58
2024/01/02 01:09:34;;;;;;;;;;;19.50;46.40;;;;;;5075942;28;19931;-58
2024/01/02 01:12:01;;;;;;;;;;;19.50;46.40;;;;;;5093612;28;19927;-57
2024/01/02 01:14:28;;;;;;;;;;;19.50;46.40;;;;;;5073200;28;19928;-58
2024/01/02 01:16:55;;;;;;;;;;;19.40;46.40;;;;;;5074628;28;19920;-58
2024/01/02 01:19:23;;;;;;;;;;;19.50;46.40;;;;;;5073431;28;19920;-57
2024/01/02 01:21:49;;;;;;;;;;;19.40;46.40;;;;;;5093378;28;19924;-57
2024/01/02 01:24:16;;;;;;;;;;;19.40;46.40;;;;;;5075949;28;19920;-57
2024/01/02 01:26:43;;;;;;;;;;;19.50;46.50;;;;;;5091864;28;19932;-58
2024/01/02 01:29:10;;;;;;;;;;;19.50;46.40;;;;;;5092377;28;20380;-58
2024/01/02 01:31:36;;;;;;;;;;;19.40;46.40;;;;;;5075047;28;19959;-58
2024/01/02 01:34:03;;;;;;;;;;;19.40;46.40;;;;;;5089762;28;20011;-58
2024/01/02 01:36:31;;;;;;;;;;;19.50;46.40;;;;;;5069783;28;19963;-57
2024/01/02 01:38:58;;;;;;;;;;;19.50;46.40;;;;;;5092266;28;19920;-58
2024/01/02 01:41:25;;;;;;;;;;;19.50;46.40;;;;;;5075013;28;19920;-58
2024/01/02 01:43:51;;;;;;;;;;;19.50;46.40;;;;;;5088693;28;19924;-58
2024/01/02 01:46:18;;;;;;;;;;;19.40;46.40;;;;;;5081978;28;19920;-57
2024/01/02 01:48:45;;;;;;;;;;;19.50;46.40;;;;;;5091396;28;20457;-58
2024/01/02 01:51:11;;;;;;;;;;;19.50;46.40;;;;;;5090780;28;19975;-58
2024/01/02 01:53:39;;;;;;;;;;;19.50;46.40;;;;;;5080287;28;19921;-58
2024/01/02 01:56:07;;;;;;;;;;;19.40;46.40;;;;;;5087926;28;19970;-58
2024/01/02 01:58:34;;;;;;;;;;;19.40;46.40;;;;;;5091310;28;19986;-58
2024/01/02 02:01:01;;;;;;;;;;;19.50;46.40;;;;;;5057576;28;19927;-58
2024/01/02 02:03:27;;;;;;;;;;;19.50;46.40;;;;;;5092073;28;19924;-58
2024/01/02 02:05:54;;;;;;;;;;;19.50;46.40;;;;;;5049985;28;20285;-58
2024/01/02 02:08:21;;;;;;;;;;;19.40;46.30;;;;;;5069478;28;19920;-58
2024/01/02 02:10:49;;;;;;;;;;;19.50;46.40;;;;;;5088050;28;19932;-58
2024/01/02 02:13:16;;;;;;;;;;;19.50;46.40;;;;;;5074131;28;19974;-58
2024/01/02 02:15:43;;;;;;;;;;;19.40;46.30;;;;;;5073100;28;19971;-57
2024/01/02 02:18:10;;;;;;;;;;;19.50;46.40;;;;;;5090971;28;19931;-57
2024/01/02 02:20:36;;;;;;;;;;;19.40;46.30;;;;;;5091147;28;19973;-57
2024/01/02 02:23:05;;;;;;;;;;;19.40;46.30;;;;;;5049567;28;19920;-57
2024/01/02 02:25:31;;;;;;;;;;;19.40;46.30;;;;;;5070780;28;19924;-58
2024/01/02 02:27:58;;;;;;;;;;;19.40;46.30;;;;;;5089568;28;19920;-58
2024/01/02 02:30:25;;;;;;;;;;;19.40;46.20;;;;;;5089544;28;19920;-58
2024/01/02 02:32:52;;;;;;;;;;;19.40;46.20;;;;;;5073915;28;19924;-57
2024/01/02 02:35:18;;;;;;;;;;;19.40;46.30;;;;;;5073341;28;19924;-57
2024/01/02 02:37:45;;;;;;;;;;;19.40;46.20;;;;;;5090551;28;19924;-57
2024/01/02 02:40:14;;;;;;;;;;;19.40;46.20;;;;;;5073324;28;19969;-58
2024/01/02 02:42:40;;;;;;;;;;;19.40;46.20;;;;;;5065069;28;20418;-58
2024/01/02 02:45:07;;;;;;;;;;;19.40;46.20;;;;;;5067461;28;19921;-58
2024/01/02 02:47:34;;;;;;;;;;;19.40;46.20;;;;;;5065263;28;19970;-58
2024/01/02 02:50:01;;;;;;;;;;;19.40;46.80;;;;;;5090139;28;19920;-58
2024/01/02 02:52:27;;;;;;;;;;;19.40;46.20;;;;;;5092026;28;19961;-58
2024/01/02 02:54:54;;;;;;;;;;;19.40;46.20;;;;;;5081388;28;19942;-58
2024/01/02 02:57:23;;;;;;;;;;;19.40;46.20;;;;;;5091323;28;19985;-58
2024/01/02 02:59:50;;;;;;;;;;;19.40;46.20;;;;;;5072342;28;19969;-57
2024/01/02 03:02:17;;;;;;;;;;;19.40;46.20;;;;;;5067475;28;19974;-58
2024/01/02 03:04:44;;;;;;;;;;;19.40;46.20;;;;;;5065206;28;19920;-58
2024/01/02 03:07:10;;;;;;;;;;;19.40;46.20;;;;;;5091472;28;19981;-57
2024/01/02 03:09:37;;;;;;;;;;;19.40;46.20;;;;;;5072866;28;19943;-57
2024/01/02 03:12:04;;;;;;;;;;;19.40;46.20;;;;;;5073542;28;19994;-58
2024/01/02 03:14:32;;;;;;;;;;;19.40;46.20;;;;;;5090046;28;19920;-58
2024/01/02 03:16:59;;;;;;;;;;;19.40;46.20;;;;;;5072550;28;19924;-58
2024/01/02 03:19:26;;;;;;;;;;;19.40;46.20;;;;;;5067856;28;19920;-58
2024/01/02 03:21:53;;;;;;;;;;;19.40;46.20;;;;;;5089106;28;20026;-57
2024/01/02 03:24:19;;;;;;;;;;;19.40;46.20;;;;;;5090111;28;19920;-57
2024/01/02 03:26:46;;;;;;;;;;;19.40;46.20;;;;;;5089069;28;19920;-58
2024/01/02 03:29:13;;;;;;;;;;;19.40;46.20;;;;;;5073362;28;19928;-57
2024/01/02 03:31:41;;;;;;;;;;;19.40;46.20;;;;;;5089457;28;20324;-58
2024/01/02 03:34:08;;;;;;;;;;;19.40;46.20;;;;;;5082192;28;19920;-58
2024/01/02 03:36:34;;;;;;;;;;;19.40;46.20;;;;;;5073200;28;20001;-58
2024/01/02 03:39:02;;;;;;;;;;;19.40;46.20;;;;;;5067253;28;19966;-58
2024/01/02 03:41:29;;;;;;;;;;;19.40;46.20;;;;;;5091023;28;19920;-58
2024/01/02 03:43:55;;;;;;;;;;;19.40;46.20;;;;;;5091191;28;20025;-58
2024/01/02 03:46:22;;;;;;;;;;;19.40;46.20;;;;;;5090115;28;19965;-58
2024/01/02 03:48:50;;;;;;;;;;;19.40;46.20;;;;;;5084277;28;19973;-57
2024/01/02 03:51:17;;;;;;;;;;;19.40;46.20;;;;;;5091048;28;19920;-57
2024/01/02 03:53:43;;;;;;;;;;;19.40;46.20;;;;;;5089564;28;20001;-58
2024/01/02 03:56:10;;;;;;;;;;;19.40;46.20;;;;;;5073814;28;19920;-57
2024/01/02 03:58:37;;;;;;;;;;;19.40;46.20;;;;;;5082947;28;19973;-57
2024/01/02 04:01:04;;;;;;;;;;;19.40;46.20;;;;;;5091361;28;19973;-58
2024/01/02 04:03:31;;;;;;;;;;;19.40;46.20;;;;;;5073954;28;19920;-57
2024/01/02 04:06:00;;;;;;;;;;;19.40;46.20;;;;;;5075133;28;19920;-57
2024/01/02 04:08:27;;;;;;;;;;;19.40;46.20;;;;;;5087723;28;19920;-57
2024/01/02 04:10:53;;;;;;;;;;;19.40;46.20;;;;;;5073697;28;20331;-57
2024/01/02 04:13:20;;;;;;;;;;;19.40;46.10;;;;;;5074965;28;19928;-58
2024/01/02 04:15:47;;;;;;;;;;;19.40;46.20;;;;;;5082223;28;20008;-58
2024/01/02 04:18:14;;;;;;;;;;;19.40;46.10;;;;;;5075186;28;19924;-58
2024/01/02 04:20:41;;;;;;;;;;;19.40;46.10;;;;;;5093491;28;19927;-58
2024/01/02 04:23:09;;;;;;;;;;;19.40;46.10;;;;;;5090909;28;19924;-57
2024/01/02 04:25:36;;;;;;;;;;;19.40;46.10;;;;;;5093425;28;19920;-58
2024/01/02 04:28:03;;;;;;;;;;;19.40;46.10;;;;;;5094621;28;19920;-58
2024/01/02 04:30:30;;;;;;;;;;;19.40;46.10;;;;;;5075548;28;19920;-58
2024/01/02 04:32:57;;;;;;;;;;;19.40;46.10;;;;;;5093650;28;19920;-57
2024/01/02 04:35:23;;;;;;;;;;;19.40;46.10;;;;;;5073690;28;19924;-58
2024/01/02 04:37:50;;;;;;;;;;;19.40;46.10;;;;;;5067806;28;20014;-58
2024/01/02 04:40:18;;;;;;;;;;;19.40;46.10;;;;;;5088850;28;19932;-58
2024/01/02 04:42:45;;;;;;;;;;;19.40;46.00;;;;;;5093193;28;19920;-58
2024/01/02 04:45:11;;;;;;;;;;;19.40;46.10;;;;;;5075562;28;19970;-57
2024/01/02 04:47:38;;;;;;;;;;;19.40;46.00;;;;;;5076305;28;20348;-58
2024/01/02 04:50:05;;;;;;;;;;;19.40;46.00;;;;;;5092285;28;19932;-58
2024/01/02 04:52:32;;;;;;;;;;;19.40;46.00;;;;;;5076073;28;19962;-58
2024/01/02 04:54:59;;;;;;;;;;;19.40;46.00;;;;;;5090617;28;19920;-58
2024/01/02 04:57:27;;;;;;;;;;;19.40;46.10;;;;;;5091039;28;19924;-58
2024/01/02 04:59:54;;;;;;;;;;;19.40;46.10;;;;;;5068124;28;19938;-58
2024/01/02 05:02:22;;;;;;;;;;;19.40;46.00;;;;;;5093923;28;19920;-58
2024/01/02 05:04:49;;;;;;;;;;;19.40;46.10;;;;;;5092290;28;19927;-57
2024/01/02 05:07:16;;;;;;;;;;;19.40;46.10;;;;;;5092390;28;19928;-57
2024/01/02 05:09:43;;;;;;;;;;;19.40;46.00;;;;;;5093616;28;19924;-58
2024/01/02 05:12:09;;;;;;;;;;;19.40;46.10;;;;;;5093080;28;19931;-57
2024/01/02 05:14:38;;;;;;;;;;;19.40;46.10;;;;;;5070953;28;19920;-58
2024/01/02 05:17:05;;;;;;;;;;;19.40;46.10;;;;;;5091578;28;19920;-57
2024/01/02 05:19:31;;;;;;;;;;;19.40;46.00;;;;;;5093880;28;19920;-57
2024/01/02 05:21:58;;;;;;;;;;;19.40;46.10;;;;;;5093590;28;19920;-58
2024/01/02 05:24:25;;;;;;;;;;;19.40;46.10;;;;;;5070746;28;19969;-58
2024/01/02 05:26:52;;;;;;;;;;;19.40;46.10;;;;;;5091072;28;19977;-58
2024/01/02 05:29:19;;;;;;;;;;;19.40;46.10;;;;;;5073815;28;20007;-57
2024/01/02 05:31:47;;;;;;;;;;;19.40;46.10;;;;;;5073494;28;19985;-57
2024/01/02 05:34:14;;;;;;;;;;;19.40;46.00;;;;;;5089038;28;19923;-58
2024/01/02 05:36:41;;;;;;;;;;;19.40;46.00;;;;;;5090387;28;20030;-57
2024/01/02 05:39:08;;;;;;;;;;;19.40;46.10;;;;;;5090076;28;19924;-57
2024/01/02 05:41:35;;;;;;;;;;;19.40;46.00;;;;;;5091913;28;19951;-57
2024/01/02 05:44:02;;;;;;;;;;;19.40;46.00;;;;;;5073188;28;19924;-57
2024/01/02 05:46:28;;;;;;;;;;;19.40;46.10;;;;;;5091408;28;19920;-57
2024/01/02 05:48:56;;;;;;;;;;;19.40;46.10;;;;;;5075189;28;19965;-57
2024/01/02 05:51:23;;;;;;;;;;;19.40;46.00;;;;;;5092316;28;19981;-57
2024/01/02 05:53:50;;;;;;;;;;;19.40;46.00;;;;;;5090881;28;19967;-57
2024/01/02 05:56:17;;;;;;;;;;;19.40;46.10;;;;;;5070802;28;20288;-57
2024/01/02 05:58:44;;;;;;;;;;;19.40;46.00;;;;;;5091032;28;19924;-57
2024/01/02 06:01:10;;;;;;;;;;;19.40;46.00;;;;;;5070280;28;20072;-57
2024/01/02 06:03:37;;;;;;;;;;;19.40;46.00;;;;;;5068222;28;19974;-57
2024/01/02 06:06:06;;;;;;;;;;;19.40;46.00;;;;;;5074166;28;20365;-57
2024/01/02 06:08:32;;;;;;;;;;;19.40;46.00;;;;;;5091839;28;19928;-57
2024/01/02 06:10:59;;;;;;;;;;;19.40;46.00;;;;;;5091288;28;19966;-57
2024/01/02 06:13:26;;;;;;;;;;;19.40;46.60;;;;;;5090624;28;19965;-57
2024/01/02 06:15:53;;;;;;;;;;;19.40;46.00;;;;;;5073968;28;19923;-57
2024/01/02 06:18:19;;;;;;;;;;;19.40;45.90;;;;;;5072165;28;20363;-57
2024/01/02 06:20:46;;;;;;;;;;;19.40;45.90;;;;;;5088764;28;19920;-58
2024/01/02 06:23:14;;;;;;;;;;;19.40;45.90;;;;;;5073194;28;19927;-56
2024/01/02 06:25:41;;;;;;;;;;;19.40;45.90;;;;;;5072851;28;19942;-57
2024/01/02 06:28:08;;;;;;;;;;;19.40;45.90;;;;;;5090858;28;19970;-57
2024/01/02 06:30:35;;;;;;;;;;;19.40;45.90;;;;;;5091523;28;19927;-57
2024/01/02 06:33:01;;;;;;;;;;;19.40;45.90;;;;;;5072706;28;19973;-57
2024/01/02 06:35:28;;;;;;;;;;;19.40;45.90;;;;;;5070846;28;19920;-57
2024/01/02 06:37:55;;;;;;;;;;;19.40;45.90;;;;;;5086673;28;20324;-57
2024/01/02 06:40:23;;;;;;;;;;;19.40;45.90;;;;;;5089467;28;19988;-57
2024/01/02 06:42:50;;;;;;;;;;;19.40;46.50;;;;;;5090113;28;19931;-57
2024/01/02 06:45:17;;;;;;;;;;;19.40;45.90;;;;;;5073975;28;19920;-57
2024/01/02 06:47:43;;;;;;;;;;;19.40;45.90;;;;;;5073636;28;19920;-57
2024/01/02 06:50:10;;;;;;;;;;;19.30;45.80;;;;;;5090555;28;20316;-57
2024/01/02 06:52:37;;;;;;;;;;;19.40;45.90;;;;;;5088409;28;19920;-57
2024/01/02 06:55:04;;;;;;;;;;;19.30;45.80;;;;;;5089879;28;19950;-58
2024/01/02 06:57:32;;;;;;;;;;;19.40;45.90;;;;;;5088504;28;19926;-57
2024/01/02 06:59:59;;;;;;;;;;;19.40;45.90;;;;;;5091516;28;19920;-58
2024/01/02 07:02:25;;;;;;;;;;;19.40;45.90;;;;;;5088952;28;20009;-57
2024/01/02 07:04:52;;;;;;;;;;;19.40;45.90;;;;;;5073530;28;19970;-57
2024/01/02 07:07:19;;;;;;;;;;;19.30;45.80;;;;;;5087731;28;19970;-57
2024/01/02 07:09:46;;;;;;;;;;;19.40;45.90;;;;;;5090461;28;19969;-56
2024/01/02 07:12:12;;;;;;;;;;;19.40;45.90;;;;;;5072735;28;19927;-57
2024/01/02 07:14:41;;;;;;;;;;;19.40;45.90;;;;;;5069458;28;19927;-57
2024/01/02 07:17:08;;;;;;;;;;;19.40;45.90;;;;;;5071411;28;19920;-57
2024/01/02 07:19:35;;;;;;;;;;;19.40;45.90;;;;;;5087704;28;20319;-57
2024/01/02 07:22:02;;;;;;;;;;;19.40;45.90;;;;;;5072391;28;19966;-57
2024/01/02 07:24:31;;;;;;;;;;;19.40;46.50;;;;;;5090287;28;19920;-57
2024/01/02 07:26:57;;;;;;;;;;;19.40;45.90;;;;;;5072394;28;19927;-58
2024/01/02 07:29:24;;;;;;;;;;;19.40;45.90;;;;;;5072868;28;19923;-57
2024/01/02 07:31:52;;;;;;;;;;;19.40;45.90;;;;;;5084430;28;19920;-57
2024/01/02 07:34:19;;;;;;;;;;;19.40;45.90;;;;;;5088554;28;19920;-57
2024/01/02 07:36:45;;;;;;;;;;;19.40;45.90;;;;;;5070762;28;19931;-57
2024/01/02 07:39:12;;;;;;;;;;;19.30;45.80;;;;;;5085652;28;20517;-57
2024/01/02 07:41:39;;;;;;;;;;;19.40;45.90;;;;;;5069261;28;19938;-57
2024/01/02 07:44:07;;;;;;;;;;;19.30;45.80;;;;;;5088124;28;19932;-57
2024/01/02 07:46:33;;;;;;;;;;;19.40;45.90;;;;;;5087403;28;19928;-57
2024/01/02 07:49:01;;;;;;;;;;;19.40;45.90;;;;;;5055622;28;20094;-57
2024/01/02 07:51:28;;;;;;;;;;;19.40;45.90;;;;;;5073567;28;19932;-57
2024/01/02 07:53:55;;;;;;;;;;;19.40;45.90;;;;;;5092120;28;19973;-57
2024/01/02 07:56:22;;;;;;;;;;;19.40;45.90;;;;;;5089194;28;19969;-57
2024/01/02 07:58:49;;;;;;;;;;;19.40;45.90;;;;;;5072709;28;19943;-57
2024/01/02 08:01:17;;;;;;;;;;;19.40;45.90;;;;;;5090328;28;19977;-57
2024/01/02 08:03:43;;;;;;;;;;;19.40;45.90;;;;;;5072681;28;19928;-57
2024/01/02 08:06:11;;;;;;;;;;;19.40;45.90;;;;;;5066425;28;19963;-57
2024/01/02 08:08:38;;;;;;;;;;;19.30;45.80;;;;;;5088203;28;20285;-57
2024/01/02 08:11:05;;;;;;;;;;;19.40;45.90;;;;;;5070104;28;19993;-57
2024/01/02 08:13:31;;;;;;;;;;;19.40;45.90;;;;;;5090524;28;19920;-57
2024/01/02 08:15:58;;;;;;;;;;;19.40;45.90;;;;;;5089092;28;19924;-57
2024/01/02 08:18:25;;;;;;;;;;;19.40;45.90;;;;;;5074479;28;19920;-57
2024/01/02 08:20:51;;;;;;;;;;;19.40;45.90;;;;;;5091668;28;20004;-57
2024/01/02 08:23:20;;;;;;;;;;;19.40;45.90;;;;;;5074101;28;19921;-57
2024/01/02 08:25:46;;;;;;;;;;;19.40;45.80;;;;;;5091421;28;19924;-57
2024/01/02 08:28:13;;;;;;;;;;;19.40;45.80;;;;;;5072429;28;19931;-58
2024/01/02 08:30:40;;;;;;;;;;;19.30;45.70;;;;;;5083167;28;19928;-57
2024/01/02 08:33:07;;;;;;;;;;;19.30;45.70;;;;;;5089391;28;19928;-58
2024/01/02 08:35:34;;;;;;;;;;;19.40;45.80;;;;;;5089046;28;20281;-57
2024/01/02 08:38:01;;;;;;;;;;;19.40;45.80;;;;;;5088166;28;19974;-57
2024/01/02 08:40:29;;;;;;;;;;;19.40;45.80;;;;;;5072905;28;19928;-57
2024/01/02 08:42:56;;;;;;;;;;;19.40;45.80;;;;;;5087355;28;20033;-57
2024/01/02 08:45:22;;;;;;;;;;;19.40;45.80;;;;;;5086218;28;19927;-57
2024/01/02 08:47:49;;;;;;;;;;;19.30;45.70;;;;;;5084958;28;19924;-57
2024/01/02 08:50:16;;;;;;;;;;;19.40;45.80;;;;;;5093826;28;19920;-57
2024/01/02 08:52:47;;;;;;;;;;;19.40;45.80;;;;;;5089837;28;19920;-57
2024/01/02 08:55:14;;;;;;;;;;;19.40;45.80;;;;;;5092496;28;19920;-57
2024/01/02 08:57:43;;;;;;;;;;;19.40;45.80;;;;;;5074624;28;20045;-58
2024/01/02 09:00:10;;;;;;;;;;;19.40;45.90;;;;;;5088619;28;19920;-58
2024/01/02 09:02:37;;;;;;;;;;;19.30;45.80;;;;;;5083217;28;20179;-58
2024/01/02 09:05:05;;;;;;;;;;;19.40;45.90;;;;;;5068790;28;19963;-58
2024/01/02 09:07:31;;;;;;;;;;;19.40;45.90;;;;;;5089288;28;20010;-58
2024/01/02 09:09:58;;;;;;;;;;;19.40;45.90;;;;;;5086475;28;19995;-57
2024/01/02 09:12:24;;;;;;;;;;;19.40;45.90;;;;;;5090859;28;19974;-57
2024/01/02 09:14:53;;;;;;;;;;;19.40;45.90;;;;;;5073340;28;19973;-58
2024/01/02 09:17:19;;;;;;;;;;;19.40;45.90;;;;;;5071133;28;19924;-58
2024/01/02 09:19:46;;;;;;;;;;;19.40;45.90;;;;;;5089884;28;20192;-57
2024/01/02 09:22:13;;;;;;;;;;;19.40;45.90;;;;;;5075249;28;19920;-57
2024/01/02 09:24:40;;;;;;;;;;;19.40;45.90;;;;;;5084496;28;21704;-53
2024/01/02 09:27:08;;;;;;;;;;;19.40;45.80;;;;;;5073230;28;19987;-55
2024/01/02 09:29:35;;;;;;;;;;;19.40;45.40;;;;;;5082562;28;20023;-51
2024/01/02 09:32:03;;;;;;;;;;;19.40;43.50;;;;;;5074563;28;19928;-49
2024/01/02 09:34:29;;;;;;;;;;;19.30;42.60;;;;;;5090923;28;20092;-48
2024/01/02 09:36:56;;;;;;;;;;;19.20;42.10;;;;;;5057119;28;19926;-46
2024/01/02 09:39:23;;;;;;;;;;;19.10;42.10;;;;;;5091651;28;20217;-54
2024/01/02 09:41:55;;;;;;;;;;;19.00;41.30;;;;;;5074139;28;19928;-51
2024/01/02 09:44:27;;;;;;;;;;;18.90;41.00;;;;;;5089205;28;19920;-55
2024/01/02 09:46:56;;;;;;;;;;;18.80;41.20;;;;;;5084904;28;19932;-54
2024/01/02 09:49:27;;;;;;;;;;;18.70;41.30;;;;;;5075461;28;19936;-51
2024/01/02 09:52:01;;;;;;;;;;;18.50;41.40;;;;;;5070338;28;19974;-55
2024/01/02 09:54:31;;;;;;;;;;;18.40;41.40;;;;;;5092789;28;19931;-57
2024/01/02 09:56:59;;;;;;;;;;;18.30;41.40;;;;;;5090560;28;19920;-57
2024/01/02 09:59:31;;;;;;;;;;;18.20;41.30;;;;;;5073254;28;19973;-54
2024/01/02 10:02:01;;;;;;;;;;;18.10;41.40;;;;;;5083798;28;20500;-47
2024/01/02 10:04:34;;;;;;;;;;;18.00;41.60;;;;;;5089025;28;19997;-50
2024/01/02 10:07:07;;;;;;;;;;;17.90;41.80;;;;;;5076935;28;20360;-57
2024/01/02 10:09:38;;;;;;;;;;;17.90;42.00;;;;;;5081904;28;20269;-57
2024/01/02 10:12:08;;;;;;;;;;;17.80;42.30;;;;;;5083475;28;19928;-57
2024/01/02 10:14:37;;;;;;;;;;;17.80;42.80;;;;;;5078596;28;19929;-57
2024/01/02 10:17:06;;;;;;;;;;;17.90;43.10;;;;;;5085518;28;19924;-57
2024/01/02 10:19:40;;;;;;;;;;;17.90;43.20;;;;;;5066323;28;19924;-57
2024/01/02 10:22:08;;;;;;;;;;;18.00;43.50;;;;;;5082611;28;19920;-57
2024/01/02 10:24:37;;;;;;;;;;;18.10;43.60;;;;;;5082647;28;19920;-57
2024/01/02 10:27:17;;;;;;;;;;;18.10;43.70;;;;;;5066455;28;20275;-57
2024/01/02 10:29:49;;;;;;;;;;;18.20;43.80;;;;;;5064747;28;19932;-57
2024/01/02 10:32:17;;;;;;;;;;;18.30;44.00;;;;;;5082732;28;19920;-58
2024/01/02 10:34:49;;;;;;;;;;;18.30;44.10;;;;;;5086445;28;20440;-58
2024/01/02 10:37:15;;;;;;;;;;;18.40;44.20;;;;;;5069413;28;19923;-57
2024/01/02 10:39:44;;;;;;;;;;;18.50;44.40;;;;;;5081752;28;19920;-58
2024/01/02 10:42:17;;;;;;;;;;;18.50;44.40;;;;;;5080218;28;19931;-57
2024/01/02 10:44:44;;;;;;;;;;;18.50;44.40;;;;;;5088059;28;19920;-58
2024/01/02 10:47:13;;;;;;;;;;;18.60;44.50;;;;;;5087191;28;19924;-57
2024/01/02 10:49:40;;;;;;;;;;;18.60;44.50;;;;;;5081213;28;20238;-58
2024/01/02 10:52:11;;;;;;;;;;;18.70;44.70;;;;;;5086801;28;19920;-57
2024/01/02 10:54:39;;;;;;;;;;;18.70;44.70;;;;;;5078022;28;19927;-57
2024/01/02 10:57:07;;;;;;;;;;;18.80;44.80;;;;;;5085895;28;19977;-57
2024/01/02 10:59:47;;;;;;;;;;;18.80;44.80;;;;;;5071952;28;19920;-57
2024/01/02 11:02:19;;;;;;;;;;;18.80;44.80;;;;;;5076794;28;19994;-57
2024/01/02 11:04:48;;;;;;;;;;;18.90;44.90;;;;;;5094722;28;19928;-57
2024/01/02 11:07:17;;;;;;;;;;;18.90;44.90;;;;;;5101145;28;20015;-58
2024/01/02 11:09:45;;;;;;;;;;;18.90;45.00;;;;;;5087270;28;19970;-57
2024/01/02 11:12:12;;;;;;;;;;;19.00;45.10;;;;;;5076028;28;19924;-56
2024/01/02 11:14:39;;;;;;;;;;;19.00;45.10;;;;;;5099622;28;19930;-57
2024/01/02 11:17:06;;;;;;;;;;;19.00;45.10;;;;;;5082113;28;20195;-57
2024/01/02 11:19:34;;;;;;;;;;;19.00;45.10;;;;;;5073127;28;19928;-58
2024/01/02 11:22:02;;;;;;;;;;;19.00;45.10;;;;;;5091915;28;19919;-57
2024/01/02 11:24:30;;;;;;;;;;;19.00;45.20;;;;;;5092210;28;20287;-58
2024/01/02 11:26:57;;;;;;;;;;;19.10;45.30;;;;;;5080506;28;19936;-57
2024/01/02 11:29:25;;;;;;;;;;;19.10;45.30;;;;;;5073125;28;20263;-57
2024/01/02 11:31:52;;;;;;;;;;;19.10;45.30;;;;;;5095998;28;19919;-57
2024/01/02 11:34:26;;;;;;;;;;;19.10;45.30;;;;;;5073528;28;20339;-58
2024/01/02 11:36:58;;;;;;;;;;;19.10;45.30;;;;;;5070597;28;20018;-58
2024/01/02 11:39:26;;;;;;;;;;;19.10;45.40;;;;;;5088967;28;19924;-58
2024/01/02 11:41:58;;;;;;;;;;;19.20;45.50;;;;;;5068034;28;20014;-58
2024/01/02 11:44:26;;;;;;;;;;;19.20;45.60;;;;;;5066242;28;19920;-58
2024/01/02 11:46:54;;;;;;;;;;;19.20;45.50;;;;;;5077437;28;20200;-58
2024/01/02 11:49:21;;;;;;;;;;;19.20;45.50;;;;;;5085712;28;19981;-58
2024/01/02 11:51:49;;;;;;;;;;;19.20;45.50;;;;;;5069127;28;19932;-58
2024/01/02 11:54:28;;;;;;;;;;;19.20;45.50;;;;;;5067218;28;19974;-58
2024/01/02 11:56:57;;;;;;;;;;;19.20;45.50;;;;;;5085455;28;19924;-57
2024/01/02 11:59:25;;;;;;;;;;;19.20;45.60;;;;;;5085618;28;19927;-58
2024/01/02 12:01:54;;;;;;;;;;;19.20;46.10;;;;;;5084016;28;19920;-58
2024/01/02 12:04:28;;;;;;;;;;;19.20;45.60;;;;;;5085501;28;19920;-58
2024/01/02 12:06:56;;;;;;;;;;;19.20;45.60;;;;;;5077639;28;19924;-58
2024/01/02 12:09:24;;;;;;;;;;;19.20;45.50;;;;;;5083013;28;19924;-58
2024/01/02 12:11:53;;;;;;;;;;;19.20;45.60;;;;;;5096773;28;19924;-58
2024/01/02 12:14:29;;;;;;;;;;;19.20;45.60;;;;;;5063273;28;19974;-58
2024/01/02 12:16:56;;;;;;;;;;;19.20;45.60;;;;;;5081400;28;19920;-58
2024/01/02 12:19:23;;;;;;;;;;;19.20;45.60;;;;;;5088204;28;19920;-59
2024/01/02 12:21:51;;;;;;;;;;;19.20;45.60;;;;;;5067474;28;19969;-59
2024/01/02 12:24:18;;;;;;;;;;;19.20;45.60;;;;;;5088286;28;19920;-59
2024/01/02 12:26:44;;;;;;;;;;;19.20;45.60;;;;;;5073073;28;19924;-59
2024/01/02 12:29:11;;;;;;;;;;;19.20;45.60;;;;;;5079007;28;19977;-59
2024/01/02 12:31:42;;;;;;;;;;;19.20;45.60;;;;;;5080066;28;19920;-59
2024/01/02 12:34:11;;;;;;;;;;;19.20;45.60;;;;;;5090171;28;19920;-59
2024/01/02 12:36:38;;;;;;;;;;;19.20;45.60;;;;;;5073214;28;20315;-59
2024/01/02 12:39:05;;;;;;;;;;;19.20;45.60;;;;;;5072488;28;19925;-59
2024/01/02 12:41:35;;;;;;;;;;;19.20;45.70;;;;;;5072665;28;19920;-59
2024/01/02 12:44:03;;;;;;;;;;;19.20;45.60;;;;;;5072371;28;19926;-59
2024/01/02 12:46:33;;;;;;;;;;;19.20;45.60;;;;;;5071926;28;19932;-59
2024/01/02 12:49:06;;;;;;;;;;;19.20;45.70;;;;;;5089871;28;19974;-59
2024/01/02 12:51:34;;;;;;;;;;;19.20;45.70;;;;;;5072134;28;19927;-59
2024/01/02 12:54:02;;;;;;;;;;;19.30;45.70;;;;;;5089006;28;19946;-59
2024/01/02 12:56:31;;;;;;;;;;;19.30;45.70;;;;;;5088179;28;20140;-59
2024/01/02 12:59:01;;;;;;;;;;;19.30;45.70;;;;;;5085598;28;19920;-59
2024/01/02 13:01:28;;;;;;;;;;;19.30;45.80;;;;;;5077787;28;19924;-59
2024/01/02 13:03:55;;;;;;;;;;;19.30;45.90;;;;;;5067191;28;19920;-58
2024/01/02 13:06:23;;;;;;;;;;;19.30;46.00;;;;;;5071612;28;19931;-58
2024/01/02 13:08:50;;;;;;;;;;;19.30;46.00;;;;;;5091103;28;19920;-59
2024/01/02 13:11:16;;;;;;;;;;;19.30;46.00;;;;;;5066420;28;19924;-59
2024/01/02 13:13:43;;;;;;;;;;;19.30;46.00;;;;;;5068061;28;19920;-59
2024/01/02 13:16:10;;;;;;;;;;;19.30;46.00;;;;;;5073752;28;19972;-59
2024/01/02 13:18:37;;;;;;;;;;;19.30;46.00;;;;;;5073644;28;19920;-59
2024/01/02 13:21:03;;;;;;;;;;;19.30;46.00;;;;;;5089179;28;19943;-59
2024/01/02 13:23:32;;;;;;;;;;;19.30;46.00;;;;;;5067851;28;19924;-59
2024/01/02 13:25:58;;;;;;;;;;;19.30;46.10;;;;;;5065379;28;19927;-59
2024/01/02 13:28:26;;;;;;;;;;;19.30;46.00;;;;;;5074183;28;19920;-59
2024/01/02 13:30:53;;;;;;;;;;;19.30;46.00;;;;;;5085641;28;19962;-59
2024/01/02 13:33:20;;;;;;;;;;;19.40;46.10;;;;;;5054605;28;19928;-58
2024/01/02 13:36:02;;;;;;;;;;;19.40;46.10;;;;;;5066140;28;19924;-58
2024/01/02 13:38:29;;;;;;;;;;;19.40;46.10;;;;;;5085792;28;19920;-58
2024/01/02 13:41:04;;;;;;;;;;;19.40;46.10;;;;;;5069569;28;19940;-58
2024/01/02 13:43:30;;;;;;;;;;;19.30;46.10;;;;;;5082385;28;19927;-58
2024/01/02 13:46:01;;;;;;;;;;;19.40;46.10;;;;;;5081087;28;19928;-59
2024/01/02 13:48:28;;;;;;;;;;;19.40;46.10;;;;;;5048088;28;19920;-59
2024/01/02 13:50:55;;;;;;;;;;;19.40;46.10;;;;;;5089555;28;19920;-59
2024/01/02 13:53:24;;;;;;;;;;;19.40;46.10;;;;;;5085343;28;19932;-59
2024/01/02 13:55:50;;;;;;;;;;;19.40;46.10;;;;;;5064308;28;19920;-59
2024/01/02 13:58:18;;;;;;;;;;;19.40;46.10;;;;;;5073801;28;19989;-59
2024/01/02 14:00:46;;;;;;;;;;;19.30;46.10;;;;;;5068924;28;19920;-58
2024/01/02 14:03:13;;;;;;;;;;;19.40;46.20;;;;;;5087912;28;20049;-59
2024/01/02 14:05:43;;;;;;;;;;;19.40;46.20;;;;;;5085780;28;19920;-59
2024/01/02 14:08:10;;;;;;;;;;;19.40;46.20;;;;;;5056346;28;19983;-59
2024/01/02 14:10:38;;;;;;;;;;;19.40;46.20;;;;;;5064742;28;19920;-59
2024/01/02 14:13:05;;;;;;;;;;;19.30;46.10;;;;;;5089363;28;19928;-59
2024/01/02 14:15:34;;;;;;;;;;;19.40;46.20;;;;;;5068245;28;19920;-59
2024/01/02 14:18:04;;;;;;;;;;;19.40;46.20;;;;;;5049143;28;20011;-60